Alto, Michigan
Current Conditions -  °F | °C
As of 11:14 AM on Monday 24 Nov 2014 (Local Time) from KGRR Reporting Station
Light Rain Light Rain  
Wind Chill: 50°   Ceiling: 400
Heat Index: 50°   Visibility: 1.2mi
Dew Point: 49°   Wind: 8mph
Humidity: 96%   Direction: 230°SW
Pressure: 29.06"   Gusts: NA
Location:  42.86°N, 85.38°W
Report Text: KGRR 241614Z 23007KT 1 1/4SM -RA BR OVC004 10/09 A2906 RMK AO2 RAB1557 P0001 T01000094
Loading
Personal Weather Stations






























Interactive Weather Map New forecast layout! Learn more

10-Day Weather Forecast

Advertisements
Track Severe Weather on mobile